createdAt,value
2023-05-19T00:00:18.895Z,66.72
2023-05-19T00:01:18.932Z,66.72
2023-05-19T00:02:18.905Z,66.86
2023-05-19T00:03:19.061Z,66.86
2023-05-19T00:04:18.857Z,66.86
2023-05-19T00:05:18.909Z,66.96
2023-05-19T00:06:18.947Z,66.96
2023-05-19T00:07:18.818Z,67.07
2023-05-19T00:08:18.867Z,67.16
2023-05-19T00:09:18.791Z,67.16
2023-05-19T00:10:18.810Z,67.27
2023-05-19T00:11:18.770Z,67.27
2023-05-19T00:12:18.778Z,67.27
2023-05-19T00:13:18.794Z,67.27
2023-05-19T00:14:18.766Z,67.37
2023-05-19T00:15:18.739Z,67.37
2023-05-19T00:16:18.837Z,67.27
2023-05-19T00:17:18.701Z,67.27
2023-05-19T00:18:18.697Z,67.27
2023-05-19T00:19:18.804Z,67.37
2023-05-19T00:20:18.674Z,67.47
2023-05-19T00:21:18.680Z,67.47
2023-05-19T00:22:18.691Z,67.57
2023-05-19T00:23:18.704Z,67.57
2023-05-19T00:24:18.650Z,67.57
2023-05-19T00:25:18.622Z,67.57
2023-05-19T00:26:18.677Z,67.68
2023-05-19T00:27:18.597Z,67.71
2023-05-19T00:28:18.599Z,67.71
2023-05-19T00:29:18.714Z,67.71
2023-05-19T00:30:18.629Z,67.81
2023-05-19T00:31:18.604Z,67.81
2023-05-19T00:32:18.605Z,67.81
2023-05-19T00:33:18.603Z,67.81
2023-05-19T00:34:18.528Z,67.91
2023-05-19T00:35:18.544Z,67.91
2023-05-19T00:36:18.503Z,68.01
2023-05-19T00:37:18.536Z,68.01
2023-05-19T00:38:18.487Z,68.01
2023-05-19T00:39:18.472Z,68.01
2023-05-19T00:40:18.570Z,68.12
2023-05-19T00:41:18.475Z,68.22
2023-05-19T00:42:18.527Z,68.42
2023-05-19T00:43:18.446Z,68.42
2023-05-19T00:44:18.423Z,68.42
2023-05-19T00:45:18.447Z,68.42
2023-05-19T00:46:18.538Z,68.52
2023-05-19T00:47:18.382Z,68.52
2023-05-19T00:48:18.385Z,68.63
2023-05-19T00:49:18.358Z,68.63
2023-05-19T00:50:18.378Z,68.63
2023-05-19T00:51:18.360Z,68.63
2023-05-19T00:52:18.329Z,68.63
2023-05-19T00:53:18.307Z,68.63
2023-05-19T00:54:18.309Z,68.66
2023-05-19T00:55:18.294Z,68.66
2023-05-19T00:56:18.331Z,68.66
2023-05-19T00:57:18.266Z,68.76
2023-05-19T00:58:18.296Z,68.76
2023-05-19T00:59:18.280Z,68.76
2023-05-19T01:00:18.249Z,68.76
2023-05-19T01:01:18.286Z,68.87
2023-05-19T01:02:18.218Z,68.87
2023-05-19T01:03:18.279Z,68.87
2023-05-19T01:04:18.195Z,68.97
2023-05-19T01:05:18.217Z,68.97
2023-05-19T01:06:18.217Z,68.97
2023-05-19T01:07:18.167Z,68.97
2023-05-19T01:08:18.182Z,69.07
2023-05-19T01:09:18.141Z,69.07
2023-05-19T01:10:18.138Z,68.97
2023-05-19T01:11:18.128Z,69.07
2023-05-19T01:12:18.166Z,69.17
2023-05-19T01:13:18.100Z,69.17
2023-05-19T01:14:18.153Z,69.17
2023-05-19T01:15:18.086Z,69.27
2023-05-19T01:16:18.105Z,69.38
2023-05-19T01:17:18.051Z,69.38
2023-05-19T01:18:18.076Z,69.38
2023-05-19T01:19:18.154Z,69.48
2023-05-19T01:20:18.028Z,69.48
2023-05-19T01:21:18.018Z,69.51
2023-05-19T01:22:18.000Z,69.51
2023-05-19T01:23:18.017Z,69.71
2023-05-19T01:24:17.997Z,69.71
2023-05-19T01:25:17.977Z,69.82
2023-05-19T01:26:17.958Z,69.82
2023-05-19T01:27:18.036Z,69.82
2023-05-19T01:28:17.947Z,69.71
2023-05-19T01:29:17.949Z,69.82
2023-05-19T01:30:17.915Z,69.82
2023-05-19T01:31:18.003Z,69.92
2023-05-19T01:32:17.953Z,69.92
2023-05-19T01:33:17.975Z,70.03
2023-05-19T01:34:17.870Z,70.03
2023-05-19T01:35:17.909Z,70.03
2023-05-19T01:36:17.906Z,70.03
2023-05-19T01:37:17.884Z,70.03
2023-05-19T01:38:17.836Z,70.03
2023-05-19T01:39:17.890Z,70.03
2023-05-19T01:40:17.828Z,70.03
2023-05-19T01:41:17.797Z,70.03
2023-05-19T01:42:17.794Z,70.12
2023-05-19T01:43:17.819Z,70.03
2023-05-19T01:44:17.773Z,70.03
2023-05-19T01:45:17.771Z,70.16
2023-05-19T01:46:17.759Z,70.26
2023-05-19T01:47:17.738Z,70.26
2023-05-19T01:48:17.761Z,70.26
2023-05-19T01:49:17.713Z,70.36
2023-05-19T01:50:17.711Z,70.47
2023-05-19T01:51:17.698Z,70.36
2023-05-19T01:52:17.685Z,70.47
2023-05-19T01:53:17.708Z,70.47
2023-05-19T01:54:17.705Z,70.47
2023-05-19T01:55:17.690Z,70.57
2023-05-19T01:56:17.642Z,70.57
2023-05-19T01:57:17.658Z,70.67
2023-05-19T01:58:17.675Z,70.67
2023-05-19T01:59:17.612Z,70.67
2023-05-19T02:00:19.292Z,70.67
2023-05-19T02:01:17.603Z,70.77
2023-05-19T02:02:17.579Z,70.77
2023-05-19T02:03:17.571Z,70.87
2023-05-19T02:04:17.658Z,70.87
2023-05-19T02:05:17.542Z,70.98
2023-05-19T02:06:17.532Z,70.98
2023-05-19T02:07:17.550Z,71.11
2023-05-19T02:08:17.501Z,71.11
2023-05-19T02:09:17.512Z,71.11
2023-05-19T02:10:17.546Z,71.22
2023-05-19T02:11:17.494Z,71.32
2023-05-19T02:12:17.519Z,71.32
2023-05-19T02:13:17.533Z,71.42
2023-05-19T02:14:17.450Z,71.42
2023-05-19T02:15:17.462Z,71.52
2023-05-19T02:16:17.437Z,71.52
2023-05-19T02:17:17.415Z,71.62
2023-05-19T02:18:17.459Z,71.62
2023-05-19T02:19:17.459Z,71.73
2023-05-19T02:20:17.432Z,71.62
2023-05-19T02:21:17.490Z,71.73
2023-05-19T02:22:17.355Z,71.73
2023-05-19T02:23:17.400Z,71.83
2023-05-19T02:24:17.341Z,71.83
2023-05-19T02:25:17.370Z,71.93
2023-05-19T02:26:17.333Z,71.93
2023-05-19T02:27:17.376Z,71.93
2023-05-19T02:28:17.300Z,71.93
2023-05-19T02:29:17.282Z,71.93
2023-05-19T02:30:17.309Z,71.93
2023-05-19T02:31:17.484Z,71.93
2023-05-19T02:32:17.304Z,71.93
2023-05-19T02:33:17.298Z,72.03
2023-05-19T02:34:17.273Z,72.03
2023-05-19T02:35:17.235Z,72.14
2023-05-19T02:36:17.214Z,72.14
2023-05-19T02:37:17.195Z,72.03
2023-05-19T02:38:17.181Z,72.14
2023-05-19T02:39:17.173Z,72.14
2023-05-19T02:40:17.246Z,72.27
2023-05-19T02:41:17.156Z,72.27
2023-05-19T02:42:17.140Z,72.34
2023-05-19T02:43:17.133Z,72.34
2023-05-19T02:44:17.155Z,72.27
2023-05-19T02:45:17.103Z,72.27
2023-05-19T02:46:17.120Z,72.48
2023-05-19T02:47:17.094Z,72.48
2023-05-19T02:48:17.124Z,72.48
2023-05-19T02:49:17.063Z,72.58
2023-05-19T02:50:17.068Z,72.58
2023-05-19T02:51:17.046Z,72.78
2023-05-19T02:52:17.031Z,72.89
2023-05-19T02:53:17.159Z,72.78
2023-05-19T02:54:17.033Z,72.78
2023-05-19T02:55:17.084Z,72.58
2023-05-19T02:56:17.025Z,72.68
2023-05-19T02:57:16.968Z,72.78
2023-05-19T02:58:16.960Z,72.68
2023-05-19T02:59:16.968Z,72.68
2023-05-19T03:00:16.947Z,72.78
2023-05-19T03:01:17.000Z,72.78
2023-05-19T03:02:16.944Z,72.78
2023-05-19T03:03:17.013Z,72.78
2023-05-19T03:04:16.892Z,72.68
2023-05-19T03:05:16.922Z,72.68
2023-05-19T03:06:16.874Z,72.68
2023-05-19T03:07:16.871Z,72.58
2023-05-19T03:08:17.031Z,72.58
2023-05-19T03:09:16.869Z,72.58
2023-05-19T03:10:16.833Z,72.58
2023-05-19T03:11:16.834Z,72.58
2023-05-19T03:12:16.862Z,72.58
2023-05-19T03:13:16.808Z,72.58
2023-05-19T03:14:16.801Z,72.58
2023-05-19T03:15:16.789Z,72.68
2023-05-19T03:16:16.838Z,72.68
2023-05-19T03:17:16.848Z,72.68
2023-05-19T03:18:16.837Z,72.68
2023-05-19T03:19:16.806Z,72.78
2023-05-19T03:20:16.725Z,72.78
2023-05-19T03:21:16.866Z,72.78
2023-05-19T03:22:16.741Z,72.68
2023-05-19T03:23:16.724Z,72.78
2023-05-19T03:24:16.684Z,72.78
2023-05-19T03:25:16.713Z,72.78
2023-05-19T03:26:16.664Z,72.78
2023-05-19T03:27:16.644Z,72.78
2023-05-19T03:28:16.686Z,72.89
2023-05-19T03:29:16.640Z,72.78
2023-05-19T03:30:16.635Z,72.78
2023-05-19T03:31:16.628Z,72.78
2023-05-19T03:32:16.623Z,72.78
2023-05-19T03:33:17.360Z,72.89
2023-05-19T03:34:16.584Z,73.13
2023-05-19T03:35:16.573Z,73.13
2023-05-19T03:36:16.557Z,73.13
2023-05-19T03:37:16.555Z,73.13
2023-05-19T03:38:16.532Z,73.13
2023-05-19T03:39:16.559Z,73.13
2023-05-19T03:40:16.505Z,73.13
2023-05-19T03:41:16.518Z,73.23
2023-05-19T03:42:16.486Z,73.44
2023-05-19T03:43:16.506Z,73.44
2023-05-19T03:44:16.493Z,73.54
2023-05-19T03:45:16.459Z,73.44
2023-05-19T03:46:16.539Z,73.54
2023-05-19T03:47:16.476Z,73.44
2023-05-19T03:48:17.948Z,73.44
2023-05-19T03:49:16.427Z,73.33
2023-05-19T03:50:16.406Z,73.44
2023-05-19T03:51:16.390Z,73.54
2023-05-19T03:52:16.414Z,73.54
2023-05-19T03:53:16.373Z,73.64
2023-05-19T03:54:16.354Z,73.74
2023-05-19T03:55:16.392Z,73.74
2023-05-19T03:56:16.333Z,73.85
2023-05-19T03:57:16.338Z,73.85
2023-05-19T03:58:16.364Z,73.85
2023-05-19T03:59:16.414Z,73.95
2023-05-19T04:00:16.301Z,74.05
2023-05-19T04:01:16.297Z,73.95
2023-05-19T04:02:16.780Z,74.05
2023-05-19T04:03:16.441Z,73.95
2023-05-19T04:04:16.334Z,73.95
2023-05-19T04:05:16.245Z,73.95
2023-05-19T04:06:16.226Z,74.05
2023-05-19T04:07:16.212Z,74.15
2023-05-19T04:08:16.213Z,74.05
2023-05-19T04:09:16.206Z,74.15
2023-05-19T04:10:16.267Z,74.15
2023-05-19T04:11:16.182Z,74.15
2023-05-19T04:12:16.189Z,74.15
2023-05-19T04:13:16.177Z,74.15
2023-05-19T04:14:16.152Z,74.26
2023-05-19T04:15:16.164Z,74.26
2023-05-19T04:16:16.228Z,74.36
2023-05-19T04:17:16.116Z,74.26
2023-05-19T04:18:16.162Z,74.26
2023-05-19T04:19:16.149Z,74.26
2023-05-19T04:20:16.064Z,74.26
2023-05-19T04:21:16.133Z,74.15
2023-05-19T04:22:16.067Z,74.26
2023-05-19T04:23:16.058Z,74.36
2023-05-19T04:24:16.029Z,74.26
2023-05-19T04:25:16.027Z,74.26
2023-05-19T04:26:16.064Z,74.26
2023-05-19T04:27:16.120Z,74.36
2023-05-19T04:28:15.995Z,74.46
2023-05-19T04:29:15.983Z,74.46
2023-05-19T04:30:18.331Z,74.26
2023-05-19T04:31:15.986Z,74.15
2023-05-19T04:32:15.980Z,74.15
2023-05-19T04:33:15.943Z,74.36
2023-05-19T04:34:15.920Z,74.26
2023-05-19T04:35:15.923Z,74.26
2023-05-19T04:36:15.901Z,74.15
2023-05-19T04:37:15.941Z,74.15
2023-05-19T04:38:15.887Z,74.15
2023-05-19T04:39:15.887Z,74.05
2023-05-19T04:40:15.867Z,74.05
2023-05-19T04:41:16.210Z,74.12
2023-05-19T04:42:15.849Z,74.02
2023-05-19T04:43:20.184Z,73.91
2023-05-19T04:44:15.822Z,73.81
2023-05-19T04:45:15.814Z,73.81
2023-05-19T04:46:15.821Z,73.91
2023-05-19T04:47:15.835Z,73.81
2023-05-19T04:48:15.772Z,74.02
2023-05-19T04:49:15.773Z,73.81
2023-05-19T04:50:15.755Z,73.91
2023-05-19T04:51:15.748Z,73.91
2023-05-19T04:52:15.807Z,74.12
2023-05-19T04:53:15.735Z,74.02
2023-05-19T04:54:15.711Z,73.91
2023-05-19T04:55:15.753Z,73.71
2023-05-19T04:56:15.873Z,73.61
2023-05-19T04:57:15.691Z,73.61
2023-05-19T04:58:15.725Z,73.57
2023-05-19T04:59:15.650Z,73.57
2023-05-19T05:00:15.657Z,73.57
2023-05-19T05:01:15.656Z,73.57
2023-05-19T05:02:15.639Z,73.57
2023-05-19T05:03:15.714Z,73.47
2023-05-19T05:04:15.656Z,73.47
2023-05-19T05:05:15.587Z,73.47
2023-05-19T05:06:15.571Z,73.16
2023-05-19T05:07:15.588Z,73.27
2023-05-19T05:08:15.559Z,73.27
2023-05-19T05:09:15.592Z,73.27
2023-05-19T05:10:15.534Z,73.27
2023-05-19T05:11:15.530Z,73.16
2023-05-19T05:12:15.509Z,73.03
2023-05-19T05:13:15.601Z,73.03
2023-05-19T05:14:15.598Z,73.23
2023-05-19T05:15:15.492Z,73.13
2023-05-19T05:16:15.521Z,73.23
2023-05-19T05:17:15.454Z,73.33
2023-05-19T05:18:15.448Z,72.82
2023-05-19T05:19:15.496Z,72.52
2023-05-19T05:20:15.428Z,72.52
2023-05-19T05:21:15.413Z,72.41
2023-05-19T05:22:15.411Z,72.38
2023-05-19T05:23:15.389Z,72.28
2023-05-19T05:24:15.381Z,72.17
2023-05-19T05:25:16.926Z,72.17
2023-05-19T05:26:15.363Z,72.17
2023-05-19T05:27:15.364Z,71.97
2023-05-19T05:28:15.331Z,71.97
2023-05-19T05:29:15.321Z,71.97
2023-05-19T05:30:15.309Z,71.66
2023-05-19T05:31:15.336Z,71.45
2023-05-19T05:32:15.342Z,71.45
2023-05-19T05:33:15.365Z,71.66
2023-05-19T05:34:15.263Z,71.62
2023-05-19T05:35:16.970Z,71.73
2023-05-19T05:36:15.250Z,71.42
2023-05-19T05:37:15.472Z,70.91
2023-05-19T05:38:15.231Z,71.22
2023-05-19T05:39:15.214Z,71.22
2023-05-19T05:40:15.195Z,71.12
2023-05-19T05:41:15.308Z,71.53
2023-05-19T05:42:15.233Z,71.59
2023-05-19T05:43:15.175Z,71.19
2023-05-19T05:44:15.168Z,70.78
2023-05-19T05:45:15.148Z,70.57
2023-05-19T05:46:15.191Z,70.16
2023-05-19T05:47:15.183Z,69.96
2023-05-19T05:48:15.353Z,70.26
2023-05-19T05:49:15.478Z,70.06
2023-05-19T05:50:15.109Z,70.06
2023-05-19T05:51:15.085Z,70.26
2023-05-19T05:52:15.070Z,70.37
2023-05-19T05:53:15.101Z,70.26
2023-05-19T05:54:15.049Z,70.06
2023-05-19T05:55:15.064Z,70.03
2023-05-19T05:56:15.044Z,70.13
2023-05-19T05:57:15.035Z,70.13
2023-05-19T05:58:16.722Z,69.82
2023-05-19T05:59:15.004Z,69.72
2023-05-19T06:00:15.000Z,69.93
2023-05-19T06:01:15.028Z,69.62
2023-05-19T06:02:15.000Z,69.31
2023-05-19T06:03:15.117Z,69.18
2023-05-19T06:04:14.964Z,69.18
2023-05-19T06:05:14.975Z,69.28
2023-05-19T06:06:17.091Z,69.59
2023-05-19T06:07:14.913Z,69.48
2023-05-19T06:08:14.907Z,69.79
2023-05-19T06:09:14.885Z,69.59
2023-05-19T06:10:14.937Z,69.56
2023-05-19T06:11:14.878Z,69.15
2023-05-19T06:12:14.863Z,69.24
2023-05-19T06:13:17.221Z,69.24
2023-05-19T06:14:14.855Z,68.94
2023-05-19T06:15:14.836Z,68.84
2023-05-19T06:16:14.929Z,68.74
2023-05-19T06:17:14.808Z,68.60
2023-05-19T06:18:14.853Z,68.50
2023-05-19T06:19:14.810Z,68.50
2023-05-19T06:20:14.790Z,68.40
2023-05-19T06:21:14.823Z,67.38
2023-05-19T06:22:14.825Z,67.68
2023-05-19T06:23:14.758Z,67.89
2023-05-19T06:24:14.739Z,68.09
2023-05-19T06:25:14.722Z,68.26
2023-05-19T06:26:14.733Z,67.85
2023-05-19T06:27:14.762Z,67.24
2023-05-19T06:28:14.711Z,67.14
2023-05-19T06:29:14.707Z,67.04
2023-05-19T06:30:14.687Z,67.14
2023-05-19T06:31:14.781Z,66.94
2023-05-19T06:32:14.659Z,66.80
2023-05-19T06:33:14.699Z,66.70
2023-05-19T06:34:14.637Z,66.50
2023-05-19T06:35:14.605Z,66.50
2023-05-19T06:36:14.620Z,66.60
2023-05-19T06:37:14.647Z,66.60
2023-05-19T06:38:14.599Z,66.39
2023-05-19T06:39:14.643Z,66.60
2023-05-19T06:40:14.584Z,66.80
2023-05-19T06:41:14.538Z,66.60
2023-05-19T06:42:14.582Z,66.80
2023-05-19T06:43:14.660Z,66.50
2023-05-19T06:44:14.514Z,66.27
2023-05-19T06:45:14.505Z,66.36
2023-05-19T06:46:14.558Z,66.47
2023-05-19T06:47:14.603Z,66.47
2023-05-19T06:48:16.598Z,66.67
2023-05-19T06:49:14.457Z,66.97
2023-05-19T06:50:14.532Z,66.67
2023-05-19T06:51:14.455Z,66.67
2023-05-19T06:52:14.424Z,66.23
2023-05-19T06:53:14.505Z,66.13
2023-05-19T06:54:14.418Z,66.03
2023-05-19T06:55:14.400Z,65.62
2023-05-19T06:56:14.435Z,65.62
2023-05-19T06:57:14.373Z,65.83
2023-05-19T06:58:14.365Z,65.72
2023-05-19T06:59:14.341Z,65.42
2023-05-19T07:00:17.558Z,65.52
2023-05-19T07:01:14.418Z,65.42
2023-05-19T07:02:14.376Z,65.31
2023-05-19T07:03:14.350Z,65.39
2023-05-19T07:04:14.424Z,65.59
2023-05-19T07:05:14.345Z,65.69
2023-05-19T07:06:14.316Z,65.49
2023-05-19T07:07:14.343Z,65.39
2023-05-19T07:08:15.776Z,65.59
2023-05-19T07:09:14.249Z,65.77
2023-05-19T07:10:14.413Z,65.66
2023-05-19T07:11:14.225Z,65.16
2023-05-19T07:12:14.219Z,65.25
2023-05-19T07:13:14.195Z,65.25
2023-05-19T07:14:14.201Z,65.16
2023-05-19T07:15:15.540Z,65.05
2023-05-19T07:16:14.222Z,65.25
2023-05-19T07:17:14.157Z,65.25
2023-05-19T07:18:14.182Z,65.43
2023-05-19T07:19:14.163Z,65.33
2023-05-19T07:20:14.498Z,64.72
2023-05-19T07:21:14.110Z,64.20
2023-05-19T07:22:14.124Z,64.00
2023-05-19T07:23:16.043Z,63.90
2023-05-19T07:24:14.087Z,63.80
2023-05-19T07:25:14.120Z,63.97
2023-05-19T07:26:14.075Z,63.87
2023-05-19T07:27:14.663Z,63.26
2023-05-19T07:28:14.041Z,62.96
2023-05-19T07:29:14.055Z,62.85
2023-05-19T07:30:14.027Z,63.16
2023-05-19T07:31:14.039Z,63.23
2023-05-19T07:32:14.045Z,62.82
2023-05-19T07:33:14.084Z,62.93
2023-05-19T07:34:13.961Z,63.23
2023-05-19T07:35:13.987Z,63.33
2023-05-19T07:36:13.991Z,63.23
2023-05-19T07:37:13.959Z,62.93
2023-05-19T07:38:13.977Z,63.02
2023-05-19T07:39:14.013Z,62.41
2023-05-19T07:40:13.907Z,62.62
2023-05-19T07:41:13.945Z,62.41
2023-05-19T07:42:13.891Z,62.70
2023-05-19T07:43:13.892Z,61.78
2023-05-19T07:44:15.974Z,61.68
2023-05-19T07:45:13.873Z,62.18
2023-05-19T07:46:13.908Z,61.88
2023-05-19T07:47:13.837Z,61.78
2023-05-19T07:48:13.896Z,61.98
2023-05-19T07:49:13.842Z,61.78
2023-05-19T07:50:13.849Z,61.75
2023-05-19T07:51:13.779Z,61.85
2023-05-19T07:52:13.795Z,61.75
2023-05-19T07:53:13.775Z,61.14
2023-05-19T07:54:13.753Z,60.74
2023-05-19T07:55:13.743Z,60.40
2023-05-19T07:56:15.141Z,60.10
2023-05-19T07:57:13.710Z,60.50
2023-05-19T07:58:14.446Z,60.81
2023-05-19T07:59:13.706Z,60.71
2023-05-19T08:00:13.729Z,61.11
2023-05-19T08:01:13.734Z,60.81
2023-05-19T08:02:15.461Z,60.71
2023-05-19T08:03:13.842Z,61.08
2023-05-19T08:04:13.749Z,61.08
2023-05-19T08:05:13.673Z,60.68
2023-05-19T08:06:13.629Z,60.58
2023-05-19T08:07:13.602Z,60.47
2023-05-19T08:08:14.959Z,60.07
2023-05-19T08:09:13.589Z,60.17
2023-05-19T08:10:13.650Z,60.17
2023-05-19T08:11:13.576Z,60.17
2023-05-19T08:12:13.552Z,59.46
2023-05-19T08:13:13.537Z,59.66
2023-05-19T08:14:15.348Z,59.56
2023-05-19T08:15:13.518Z,59.26
2023-05-19T08:16:15.497Z,59.66
2023-05-19T08:17:13.493Z,59.66
2023-05-19T08:18:13.691Z,59.56
2023-05-19T08:19:13.525Z,59.43
2023-05-19T08:20:13.467Z,59.43
2023-05-19T08:21:14.347Z,59.33
2023-05-19T08:22:15.262Z,58.72
2023-05-19T08:23:13.433Z,58.42
2023-05-19T08:24:13.429Z,58.29
2023-05-19T08:25:13.415Z,58.18
2023-05-19T08:26:13.410Z,57.98
2023-05-19T08:27:13.405Z,57.88
2023-05-19T08:28:13.426Z,57.88
2023-05-19T08:29:13.412Z,57.98
2023-05-19T08:30:13.364Z,58.06
2023-05-19T08:31:13.430Z,58.06
2023-05-19T08:32:13.629Z,57.28
2023-05-19T08:33:13.462Z,57.07
2023-05-19T08:34:13.353Z,57.58
2023-05-19T08:35:13.303Z,58.09
2023-05-19T08:36:13.308Z,57.98
2023-05-19T08:37:13.337Z,58.09
2023-05-19T08:38:13.266Z,58.49
2023-05-19T08:39:13.303Z,58.76
2023-05-19T08:40:13.264Z,57.55
2023-05-19T08:41:13.236Z,56.34
2023-05-19T08:42:15.226Z,56.13
2023-05-19T08:43:13.211Z,56.54
2023-05-19T08:44:13.243Z,57.02
2023-05-19T08:45:13.230Z,56.71
2023-05-19T08:46:13.258Z,56.10
2023-05-19T08:47:13.169Z,55.19
2023-05-19T08:48:13.207Z,55.40
2023-05-19T08:49:13.221Z,55.07
2023-05-19T08:50:13.141Z,55.17
2023-05-19T08:51:13.137Z,55.68
2023-05-19T08:52:13.178Z,55.98
2023-05-19T08:53:28.952Z,55.77
2023-05-19T08:54:17.322Z,55.88
2023-05-19T08:55:13.147Z,56.08
2023-05-19T08:56:13.089Z,56.18
2023-05-19T08:57:13.056Z,55.88
2023-05-19T08:58:13.071Z,55.24
2023-05-19T08:59:13.076Z,55.27
2023-05-19T09:00:14.717Z,55.68
2023-05-19T09:01:13.171Z,55.37
2023-05-19T09:02:13.019Z,55.98
2023-05-19T09:04:13.220Z,55.88
2023-05-19T09:05:14.876Z,55.47
2023-05-19T09:06:12.984Z,55.27
2023-05-19T09:07:12.995Z,54.84
2023-05-19T09:08:12.943Z,54.33
2023-05-19T09:09:12.951Z,53.72
2023-05-19T09:10:13.000Z,53.22
2023-05-19T09:11:12.917Z,52.41
2023-05-19T09:12:12.916Z,52.01
2023-05-19T09:13:12.914Z,52.41
2023-05-19T09:14:12.874Z,53.09
2023-05-19T09:15:14.866Z,53.19
2023-05-19T09:16:12.896Z,53.09
2023-05-19T09:17:12.917Z,52.48
2023-05-19T09:18:12.868Z,51.65
2023-05-19T09:19:14.606Z,51.86
2023-05-19T09:20:12.861Z,52.28
2023-05-19T09:21:12.789Z,51.28
2023-05-19T09:22:12.785Z,52.19
2023-05-19T09:23:12.779Z,52.48
2023-05-19T09:24:14.752Z,52.28
2023-05-19T09:25:12.772Z,51.88
2023-05-19T09:26:12.744Z,51.88
2023-05-19T09:27:12.783Z,51.88
2023-05-19T09:28:12.724Z,51.98
2023-05-19T09:29:12.726Z,52.19
2023-05-19T09:30:12.698Z,52.39
2023-05-19T09:31:12.696Z,52.28
2023-05-19T09:32:12.727Z,52.28
2023-05-19T09:33:13.888Z,51.88
2023-05-19T09:34:12.651Z,51.57
2023-05-19T09:35:12.658Z,51.78
2023-05-19T09:36:14.273Z,52.19
2023-05-19T09:37:12.653Z,52.69
2023-05-19T09:38:12.623Z,52.99
2023-05-19T09:39:12.620Z,53.07
2023-05-19T09:40:13.117Z,51.76
2023-05-19T09:41:12.644Z,51.65
2023-05-19T09:42:12.582Z,51.43
2023-05-19T09:43:12.555Z,51.32
2023-05-19T09:44:12.552Z,50.72
2023-05-19T09:45:12.539Z,50.92
2023-05-19T09:46:14.431Z,50.70
2023-05-19T09:47:12.503Z,50.52
2023-05-19T09:48:12.523Z,50.42
2023-05-19T09:49:13.173Z,50.42
2023-05-19T09:50:12.534Z,50.49
2023-05-19T09:51:12.468Z,50.21
2023-05-19T09:52:12.788Z,50.32
2023-05-19T09:53:12.448Z,50.82
2023-05-19T09:54:12.473Z,51.32
2023-05-19T09:55:12.438Z,51.23
2023-05-19T09:56:12.451Z,51.12
2023-05-19T09:57:12.430Z,50.72
2023-05-19T09:58:12.800Z,50.72
2023-05-19T09:59:12.431Z,50.72
2023-05-19T10:00:12.431Z,50.62
2023-05-19T10:01:12.436Z,50.72
2023-05-19T10:02:13.874Z,50.52
2023-05-19T10:03:12.425Z,50.92
2023-05-19T10:04:12.384Z,50.92
2023-05-19T10:05:12.471Z,50.90
2023-05-19T10:06:12.378Z,51.00
2023-05-19T10:07:12.327Z,51.10
2023-05-19T10:08:12.287Z,51.00
2023-05-19T10:09:12.272Z,51.00
2023-05-19T10:10:12.275Z,51.71
2023-05-19T10:11:12.249Z,51.81
2023-05-19T10:12:12.281Z,51.40
2023-05-19T10:13:12.223Z,51.81
2023-05-19T10:14:12.221Z,50.78
2023-05-19T10:15:12.202Z,50.57
2023-05-19T10:16:12.242Z,51.07
2023-05-19T10:17:12.211Z,51.38
2023-05-19T10:18:12.274Z,50.27
2023-05-19T10:19:13.837Z,50.98
2023-05-19T10:20:12.167Z,51.38
2023-05-19T10:21:12.159Z,51.48
2023-05-19T10:22:12.222Z,51.48
2023-05-19T10:23:12.128Z,50.07
2023-05-19T10:24:13.303Z,50.15
2023-05-19T10:25:12.161Z,50.55
2023-05-19T10:26:12.095Z,50.24
2023-05-19T10:27:12.088Z,49.74
2023-05-19T10:28:12.061Z,50.24
2023-05-19T10:29:12.099Z,49.94
2023-05-19T10:30:13.211Z,49.04
2023-05-19T10:31:12.107Z,48.73
2023-05-19T10:32:12.167Z,48.63
2023-05-19T10:33:13.330Z,48.43
2023-05-19T10:34:12.038Z,48.53
2023-05-19T10:35:12.019Z,48.55
2023-05-19T10:36:11.971Z,49.26
2023-05-19T10:37:11.999Z,49.87
2023-05-19T10:38:11.968Z,49.66
2023-05-19T10:39:14.077Z,49.76
2023-05-19T10:40:11.954Z,50.07
2023-05-19T10:41:11.935Z,50.04
2023-05-19T10:42:11.910Z,49.64
2023-05-19T10:43:11.943Z,49.84
2023-05-19T10:44:11.892Z,49.54
2023-05-19T10:45:11.924Z,49.64
2023-05-19T10:46:11.911Z,50.15
2023-05-19T10:47:12.050Z,49.01
2023-05-19T10:48:11.895Z,48.91
2023-05-19T10:49:11.886Z,49.01
2023-05-19T10:50:11.825Z,48.61
2023-05-19T10:51:11.821Z,48.61
2023-05-19T10:52:11.815Z,49.01
2023-05-19T10:53:11.846Z,49.82
2023-05-19T10:54:12.926Z,49.82
2023-05-19T10:55:11.830Z,49.82
2023-05-19T10:56:11.768Z,49.72
2023-05-19T10:57:11.756Z,48.41
2023-05-19T10:58:11.737Z,48.21
2023-05-19T10:59:11.730Z,48.50
2023-05-19T11:00:12.999Z,48.30
2023-05-19T11:01:11.723Z,48.30
2023-05-19T11:02:11.820Z,48.10
2023-05-19T11:03:11.769Z,47.47
2023-05-19T11:04:15.280Z,47.38
2023-05-19T11:05:11.667Z,47.58
2023-05-19T11:06:11.660Z,46.97
2023-05-19T11:07:11.655Z,46.47
2023-05-19T11:08:13.564Z,46.57
2023-05-19T11:09:11.646Z,46.17
2023-05-19T11:10:19.150Z,46.17
2023-05-19T11:11:11.658Z,45.86
2023-05-19T11:12:11.604Z,45.97
2023-05-19T11:13:11.588Z,45.97
2023-05-19T11:14:11.603Z,46.26
2023-05-19T11:15:11.571Z,46.37
2023-05-19T11:16:11.659Z,47.27
2023-05-19T11:17:11.550Z,46.26
2023-05-19T11:18:11.538Z,46.26
2023-05-19T11:19:13.494Z,46.97
2023-05-19T11:20:11.534Z,47.17
2023-05-19T11:21:11.585Z,46.75
2023-05-19T11:22:11.497Z,46.14
2023-05-19T11:23:11.565Z,46.04
2023-05-19T11:24:11.462Z,45.52
2023-05-19T11:25:11.473Z,44.92
2023-05-19T11:26:11.448Z,44.83
2023-05-19T11:27:11.469Z,44.83
2023-05-19T11:28:11.414Z,44.63
2023-05-19T11:29:11.423Z,44.93
2023-05-19T11:30:11.778Z,45.24
2023-05-19T11:31:11.415Z,45.54
2023-05-19T11:32:11.487Z,45.74
2023-05-19T11:33:11.404Z,45.64
2023-05-19T11:34:12.053Z,45.64
2023-05-19T11:35:11.403Z,46.55
2023-05-19T11:36:11.378Z,46.95
2023-05-19T11:37:11.327Z,46.42
2023-05-19T11:38:11.403Z,45.82
2023-05-19T11:39:11.307Z,45.92
2023-05-19T11:40:11.382Z,45.90
2023-05-19T11:41:13.032Z,45.09
2023-05-19T11:42:11.326Z,45.70
2023-05-19T11:43:11.277Z,45.19
2023-05-19T11:44:11.288Z,44.89
2023-05-19T11:45:11.257Z,45.00
2023-05-19T11:46:13.586Z,44.39
2023-05-19T11:47:11.226Z,44.29
2023-05-19T11:48:11.288Z,45.00
2023-05-19T11:49:11.208Z,45.00
2023-05-19T11:50:11.258Z,44.89
2023-05-19T11:51:11.186Z,44.59
2023-05-19T11:52:13.179Z,44.69
2023-05-19T11:53:11.165Z,44.87
2023-05-19T11:54:11.144Z,43.76
2023-05-19T11:55:11.129Z,43.79
2023-05-19T11:56:11.117Z,44.17
2023-05-19T11:57:11.145Z,44.17
2023-05-19T11:58:11.092Z,44.67
2023-05-19T11:59:11.099Z,44.77
2023-05-19T12:00:12.699Z,44.67
2023-05-19T12:01:11.067Z,44.75
2023-05-19T12:02:12.810Z,44.65
2023-05-19T12:03:11.136Z,45.15
2023-05-19T12:04:12.901Z,44.65
2023-05-19T12:05:11.065Z,44.24
2023-05-19T12:06:11.025Z,44.45
2023-05-19T12:07:11.035Z,44.15
2023-05-19T12:08:11.079Z,43.84
2023-05-19T12:09:11.057Z,44.15
2023-05-19T12:10:11.006Z,43.64
2023-05-19T12:11:11.054Z,43.84
2023-05-19T12:12:10.945Z,44.24
2023-05-19T12:13:11.200Z,43.64
2023-05-19T12:14:10.962Z,43.24
2023-05-19T12:15:10.943Z,43.34
2023-05-19T12:16:12.669Z,43.44
2023-05-19T12:17:10.923Z,43.44
2023-05-19T12:18:11.039Z,43.95
2023-05-19T12:19:10.929Z,43.74
2023-05-19T12:20:10.879Z,43.74
2023-05-19T12:21:10.849Z,43.96
2023-05-19T12:22:10.866Z,44.27
2023-05-19T12:23:10.828Z,44.97
2023-05-19T12:24:10.839Z,44.95
2023-05-19T12:25:10.852Z,44.65
2023-05-19T12:26:10.807Z,44.75
2023-05-19T12:27:10.780Z,44.83
2023-05-19T12:28:10.896Z,44.53
2023-05-19T12:29:10.778Z,43.92
2023-05-19T12:30:10.804Z,43.72
2023-05-19T12:31:10.800Z,43.10
2023-05-19T12:32:10.756Z,43.10
2023-05-19T12:33:12.747Z,43.50
2023-05-19T12:34:10.698Z,42.90
2023-05-19T12:35:10.696Z,42.90
2023-05-19T12:36:10.703Z,42.30
2023-05-19T12:37:10.747Z,43.30
2023-05-19T12:38:10.694Z,43.10
2023-05-19T12:39:10.695Z,43.62
2023-05-19T12:40:10.639Z,43.60
2023-05-19T12:41:10.676Z,43.60
2023-05-19T12:42:10.624Z,43.30
2023-05-19T12:43:12.435Z,43.20
2023-05-19T12:44:10.639Z,43.20
2023-05-19T12:45:10.667Z,42.68
2023-05-19T12:46:10.730Z,42.47
2023-05-19T12:47:10.563Z,41.87
2023-05-19T12:48:10.646Z,41.47
2023-05-19T12:49:12.373Z,41.67
2023-05-19T12:50:10.643Z,41.47
2023-05-19T12:51:10.519Z,41.97
2023-05-19T12:52:12.897Z,42.68
2023-05-19T12:53:12.720Z,42.97